sensor_id;sensor_type;location;lat;lon;timestamp;pressure;altitude;pressure_sealevel;temperature
50206;BMP280;36098;48.390;10.856;2023-05-10T00:02:18;95436.81;;;23.92
50206;BMP280;36098;48.390;10.856;2023-05-10T00:04:43;95442.47;;;23.86
50206;BMP280;36098;48.390;10.856;2023-05-10T00:07:11;95433.78;;;23.85
50206;BMP280;36098;48.390;10.856;2023-05-10T00:09:37;95432.22;;;23.84
50206;BMP280;36098;48.390;10.856;2023-05-10T00:12:11;95439.56;;;23.87
50206;BMP280;36098;48.390;10.856;2023-05-10T00:14:44;95440.84;;;23.90
50206;BMP280;36098;48.390;10.856;2023-05-10T00:17:16;95436.44;;;23.85
50206;BMP280;36098;48.390;10.856;2023-05-10T00:19:46;95432.50;;;23.83
50206;BMP280;36098;48.390;10.856;2023-05-10T00:22:19;95427.78;;;23.80
50206;BMP280;36098;48.390;10.856;2023-05-10T00:24:44;95426.66;;;23.86
50206;BMP280;36098;48.390;10.856;2023-05-10T00:27:12;95420.88;;;23.84
50206;BMP280;36098;48.390;10.856;2023-05-10T00:29:37;95427.78;;;23.80
50206;BMP280;36098;48.390;10.856;2023-05-10T00:32:03;95424.06;;;23.81
50206;BMP280;36098;48.390;10.856;2023-05-10T00:34:36;95423.09;;;23.77
50206;BMP280;36098;48.390;10.856;2023-05-10T00:37:01;95418.47;;;23.87
50206;BMP280;36098;48.390;10.856;2023-05-10T00:39:26;95423.75;;;23.87
50206;BMP280;36098;48.390;10.856;2023-05-10T00:42:02;95418.31;;;23.79
50206;BMP280;36098;48.390;10.856;2023-05-10T00:44:27;95419.53;;;23.86
50206;BMP280;36098;48.390;10.856;2023-05-10T00:46:56;95424.31;;;23.84
50206;BMP280;36098;48.390;10.856;2023-05-10T00:49:22;95416.69;;;23.83
50206;BMP280;36098;48.390;10.856;2023-05-10T00:51:47;95421.19;;;23.82
50206;BMP280;36098;48.390;10.856;2023-05-10T00:54:15;95419.06;;;23.84
50206;BMP280;36098;48.390;10.856;2023-05-10T00:56:44;95415.69;;;23.79
50206;BMP280;36098;48.390;10.856;2023-05-10T00:59:14;95410.13;;;23.80
50206;BMP280;36098;48.390;10.856;2023-05-10T01:01:44;95417.47;;;23.83
50206;BMP280;36098;48.390;10.856;2023-05-10T01:04:12;95424.31;;;23.84
50206;BMP280;36098;48.390;10.856;2023-05-10T01:06:42;95418.03;;;23.80
50206;BMP280;36098;48.390;10.856;2023-05-10T01:09:07;95415.81;;;23.87
50206;BMP280;36098;48.390;10.856;2023-05-10T01:11:36;95414.16;;;23.91
50206;BMP280;36098;48.390;10.856;2023-05-10T01:14:03;95414.25;;;23.86
50206;BMP280;36098;48.390;10.856;2023-05-10T01:16:29;95416.91;;;23.86
50206;BMP280;36098;48.390;10.856;2023-05-10T01:18:57;95421.19;;;23.82
50206;BMP280;36098;48.390;10.856;2023-05-10T01:21:38;95416.75;;;23.78
50206;BMP280;36098;48.390;10.856;2023-05-10T01:26:57;95427.00;;;23.79
50206;BMP280;36098;48.390;10.856;2023-05-10T01:34:34;95413.34;;;23.77
50206;BMP280;36098;48.390;10.856;2023-05-10T01:37:07;95420.19;;;23.78
50206;BMP280;36098;48.390;10.856;2023-05-10T01:42:14;95422.59;;;23.75
50206;BMP280;36098;48.390;10.856;2023-05-10T01:47:38;95424.53;;;23.69
50206;BMP280;36098;48.390;10.856;2023-05-10T01:50:14;95423.09;;;23.77
50206;BMP280;36098;48.390;10.856;2023-05-10T01:52:45;95426.53;;;23.77
50206;BMP280;36098;48.390;10.856;2023-05-10T01:55:15;95427.00;;;23.79
50206;BMP280;36098;48.390;10.856;2023-05-10T01:57:42;95420.53;;;23.72
50206;BMP280;36098;48.390;10.856;2023-05-10T02:00:12;95420.31;;;23.68
50206;BMP280;36098;48.390;10.856;2023-05-10T02:02:42;95431.84;;;23.72
50206;BMP280;36098;48.390;10.856;2023-05-10T02:05:09;95419.75;;;23.71
50206;BMP280;36098;48.390;10.856;2023-05-10T02:07:37;95431.44;;;23.65
50206;BMP280;36098;48.390;10.856;2023-05-10T02:10:04;95435.56;;;23.71
50206;BMP280;36098;48.390;10.856;2023-05-10T02:12:30;95426.94;;;23.66
50206;BMP280;36098;48.390;10.856;2023-05-10T02:14:59;95428.31;;;23.63
50206;BMP280;36098;48.390;10.856;2023-05-10T02:17:25;95430.97;;;23.63
50206;BMP280;36098;48.390;10.856;2023-05-10T02:19:53;95437.78;;;23.64
50206;BMP280;36098;48.390;10.856;2023-05-10T02:22:20;95435.91;;;23.65
50206;BMP280;36098;48.390;10.856;2023-05-10T02:24:49;95434.09;;;23.65
50206;BMP280;36098;48.390;10.856;2023-05-10T02:27:18;95429.03;;;23.69
50206;BMP280;36098;48.390;10.856;2023-05-10T02:29:44;95437.22;;;23.67
50206;BMP280;36098;48.390;10.856;2023-05-10T02:32:10;95432.22;;;23.66
50206;BMP280;36098;48.390;10.856;2023-05-10T02:34:39;95444.22;;;23.58
50206;BMP280;36098;48.390;10.856;2023-05-10T02:37:05;95439.22;;;23.57
50206;BMP280;36098;48.390;10.856;2023-05-10T02:39:33;95437.16;;;23.54
50206;BMP280;36098;48.390;10.856;2023-05-10T02:42:03;95434.75;;;23.57
50206;BMP280;36098;48.390;10.856;2023-05-10T02:44:30;95441.38;;;23.55
50206;BMP280;36098;48.390;10.856;2023-05-10T02:46:56;95441.59;;;23.58
50206;BMP280;36098;48.390;10.856;2023-05-10T02:49:22;95442.84;;;23.61
50206;BMP280;36098;48.390;10.856;2023-05-10T02:51:49;95442.66;;;23.57
50206;BMP280;36098;48.390;10.856;2023-05-10T02:54:18;95443.91;;;23.60
50206;BMP280;36098;48.390;10.856;2023-05-10T02:56:50;95442.66;;;23.57
50206;BMP280;36098;48.390;10.856;2023-05-10T02:59:19;95443.34;;;23.63
50206;BMP280;36098;48.390;10.856;2023-05-10T03:01:44;95439.63;;;23.64
50206;BMP280;36098;48.390;10.856;2023-05-10T03:04:10;95449.97;;;23.60
50206;BMP280;36098;48.390;10.856;2023-05-10T03:06:35;95441.84;;;23.57
50206;BMP280;36098;48.390;10.856;2023-05-10T03:09:01;95442.66;;;23.57
50206;BMP280;36098;48.390;10.856;2023-05-10T03:14:09;95448.69;;;23.58
50206;BMP280;36098;48.390;10.856;2023-05-10T03:16:42;95449.53;;;23.53
50206;BMP280;36098;48.390;10.856;2023-05-10T03:19:22;95453.75;;;23.54
50206;BMP280;36098;48.390;10.856;2023-05-10T03:21:50;95447.34;;;23.60
50206;BMP280;36098;48.390;10.856;2023-05-10T03:24:23;95460.53;;;23.60
50206;BMP280;36098;48.390;10.856;2023-05-10T03:26:52;95455.31;;;23.55
50206;BMP280;36098;48.390;10.856;2023-05-10T03:29:22;95460.56;;;23.55
50206;BMP280;36098;48.390;10.856;2023-05-10T03:31:49;95468.56;;;23.50
50206;BMP280;36098;48.390;10.856;2023-05-10T03:34:14;95463.78;;;23.52
50206;BMP280;36098;48.390;10.856;2023-05-10T03:36:40;95467.72;;;23.55
50206;BMP280;36098;48.390;10.856;2023-05-10T03:39:10;95468.78;;;23.54
50206;BMP280;36098;48.390;10.856;2023-05-10T03:41:41;95477.69;;;23.58
50206;BMP280;36098;48.390;10.856;2023-05-10T03:44:07;95481.97;;;23.54
50206;BMP280;36098;48.390;10.856;2023-05-10T03:46:32;95487.00;;;23.50
50206;BMP280;36098;48.390;10.856;2023-05-10T03:48:57;95488.31;;;23.53
50206;BMP280;36098;48.390;10.856;2023-05-10T03:51:25;95498.28;;;23.56
50206;BMP280;36098;48.390;10.856;2023-05-10T03:53:55;95498.13;;;23.47
50206;BMP280;36098;48.390;10.856;2023-05-10T03:56:26;95496.47;;;23.51
50206;BMP280;36098;48.390;10.856;2023-05-10T03:58:55;95489.63;;;23.50
50206;BMP280;36098;48.390;10.856;2023-05-10T04:01:22;95501.81;;;23.46
50206;BMP280;36098;48.390;10.856;2023-05-10T04:03:51;95499.13;;;23.51
50206;BMP280;36098;48.390;10.856;2023-05-10T04:06:16;95505.75;;;23.49
50206;BMP280;36098;48.390;10.856;2023-05-10T04:08:44;95513.09;;;23.52
50206;BMP280;36098;48.390;10.856;2023-05-10T04:11:12;95502.25;;;23.53
50206;BMP280;36098;48.390;10.856;2023-05-10T04:13:38;95509.16;;;23.49
50206;BMP280;36098;48.390;10.856;2023-05-10T04:16:04;95510.38;;;23.57
50206;BMP280;36098;48.390;10.856;2023-05-10T04:18:30;95516.50;;;23.52
50206;BMP280;36098;48.390;10.856;2023-05-10T04:20:57;95512.28;;;23.51
50206;BMP280;36098;48.390;10.856;2023-05-10T04:23:25;95519.19;;;23.47
50206;BMP280;36098;48.390;10.856;2023-05-10T04:26:00;95514.72;;;23.48
50206;BMP280;36098;48.390;10.856;2023-05-10T04:28:28;95512.94;;;23.43
50206;BMP280;36098;48.390;10.856;2023-05-10T04:31:00;95527.91;;;23.48
50206;BMP280;36098;48.390;10.856;2023-05-10T04:33:27;95527.19;;;23.42
50206;BMP280;36098;48.390;10.856;2023-05-10T04:35:53;95536.44;;;23.40
50206;BMP280;36098;48.390;10.856;2023-05-10T04:38:20;95527.19;;;23.42
50206;BMP280;36098;48.390;10.856;2023-05-10T04:40:45;95538.50;;;23.43
50206;BMP280;36098;48.390;10.856;2023-05-10T04:43:14;95533.78;;;23.40
50206;BMP280;36098;48.390;10.856;2023-05-10T04:45:39;95548.81;;;23.39
50206;BMP280;36098;48.390;10.856;2023-05-10T04:48:05;95540.44;;;23.37
50206;BMP280;36098;48.390;10.856;2023-05-10T04:50:41;95546.69;;;23.41
50206;BMP280;36098;48.390;10.856;2023-05-10T04:53:12;95544.81;;;23.42
50206;BMP280;36098;48.390;10.856;2023-05-10T04:55:38;95546.69;;;23.41
50206;BMP280;36098;48.390;10.856;2023-05-10T04:58:03;95555.09;;;23.43
50206;BMP280;36098;48.390;10.856;2023-05-10T05:00:29;95563.44;;;23.50
50206;BMP280;36098;48.390;10.856;2023-05-10T05:02:54;95558.59;;;23.57
50206;BMP280;36098;48.390;10.856;2023-05-10T05:05:20;95550.28;;;23.69
50206;BMP280;36098;48.390;10.856;2023-05-10T05:07:48;95549.06;;;23.80
50206;BMP280;36098;48.390;10.856;2023-05-10T05:10:16;95564.78;;;23.90
50206;BMP280;36098;48.390;10.856;2023-05-10T05:12:44;95554.56;;;23.83
50206;BMP280;36098;48.390;10.856;2023-05-10T05:15:09;95560.16;;;23.77
50206;BMP280;36098;48.390;10.856;2023-05-10T05:17:35;95573.44;;;23.72
50206;BMP280;36098;48.390;10.856;2023-05-10T05:20:04;95575.47;;;23.98
50206;BMP280;36098;48.390;10.856;2023-05-10T05:22:29;95576.72;;;24.01
50206;BMP280;36098;48.390;10.856;2023-05-10T05:24:57;95575.22;;;23.95
50206;BMP280;36098;48.390;10.856;2023-05-10T05:27:23;95578.50;;;24.05
50206;BMP280;36098;48.390;10.856;2023-05-10T05:29:52;95584.59;;;24.06
50206;BMP280;36098;48.390;10.856;2023-05-10T05:32:17;95581.59;;;23.94
50206;BMP280;36098;48.390;10.856;2023-05-10T05:34:46;95579.22;;;23.92
50206;BMP280;36098;48.390;10.856;2023-05-10T05:37:15;95583.19;;;24.08
50206;BMP280;36098;48.390;10.856;2023-05-10T05:39:43;95573.66;;;24.12
50206;BMP280;36098;48.390;10.856;2023-05-10T05:42:11;95573.59;;;24.17
50206;BMP280;36098;48.390;10.856;2023-05-10T05:44:41;95577.34;;;24.30
50206;BMP280;36098;48.390;10.856;2023-05-10T05:47:06;95568.53;;;24.34
50206;BMP280;36098;48.390;10.856;2023-05-10T05:49:32;95577.34;;;24.11
50206;BMP280;36098;48.390;10.856;2023-05-10T05:52:00;95574.06;;;24.19
50206;BMP280;36098;48.390;10.856;2023-05-10T05:54:28;95581.72;;;24.34
50206;BMP280;36098;48.390;10.856;2023-05-10T05:56:54;95580.84;;;24.25
50206;BMP280;36098;48.390;10.856;2023-05-10T05:59:20;95588.03;;;24.38
50206;BMP280;36098;48.390;10.856;2023-05-10T06:01:46;95588.88;;;24.15
50206;BMP280;36098;48.390;10.856;2023-05-10T06:04:11;95603.59;;;23.84
50206;BMP280;36098;48.390;10.856;2023-05-10T06:06:37;95599.09;;;24.03
50206;BMP280;36098;48.390;10.856;2023-05-10T06:09:05;95597.25;;;24.04
50206;BMP280;36098;48.390;10.856;2023-05-10T06:11:30;95600.47;;;24.19
50206;BMP280;36098;48.390;10.856;2023-05-10T06:13:59;95608.94;;;24.16
50206;BMP280;36098;48.390;10.856;2023-05-10T06:16:25;95600.41;;;24.06
50206;BMP280;36098;48.390;10.856;2023-05-10T06:18:50;95602.59;;;23.99
50206;BMP280;36098;48.390;10.856;2023-05-10T06:21:16;95603.59;;;24.21
50206;BMP280;36098;48.390;10.856;2023-05-10T06:23:41;95607.31;;;24.20
50206;BMP280;36098;48.390;10.856;2023-05-10T06:26:09;95614.34;;;24.06
50206;BMP280;36098;48.390;10.856;2023-05-10T06:28:35;95611.22;;;24.04
50206;BMP280;36098;48.390;10.856;2023-05-10T06:31:03;95626.34;;;23.99
50206;BMP280;36098;48.390;10.856;2023-05-10T06:33:29;95619.72;;;24.01
50206;BMP280;36098;48.390;10.856;2023-05-10T06:35:54;95615.97;;;24.21
50206;BMP280;36098;48.390;10.856;2023-05-10T06:38:20;95626.34;;;24.17
50206;BMP280;36098;48.390;10.856;2023-05-10T06:40:51;95626.84;;;24.19
50206;BMP280;36098;48.390;10.856;2023-05-10T06:43:19;95617.72;;;24.12
50206;BMP280;36098;48.390;10.856;2023-05-10T06:45:44;95619.41;;;23.84
50206;BMP280;36098;48.390;10.856;2023-05-10T06:48:10;95626.91;;;23.72
50206;BMP280;36098;48.390;10.856;2023-05-10T06:50:35;95626.56;;;23.79
50206;BMP280;36098;48.390;10.856;2023-05-10T06:53:01;95625.81;;;24.15
50206;BMP280;36098;48.390;10.856;2023-05-10T06:55:29;95621.94;;;24.45
50206;BMP280;36098;48.390;10.856;2023-05-10T06:57:57;95626.44;;;24.63
50206;BMP280;36098;48.390;10.856;2023-05-10T07:00:26;95635.25;;;24.58
50206;BMP280;36098;48.390;10.856;2023-05-10T07:02:53;95638.47;;;24.50
50206;BMP280;36098;48.390;10.856;2023-05-10T07:05:20;95631.53;;;24.59
50206;BMP280;36098;48.390;10.856;2023-05-10T07:07:45;95626.53;;;24.39
50206;BMP280;36098;48.390;10.856;2023-05-10T07:10:10;95635.66;;;24.28
50206;BMP280;36098;48.390;10.856;2023-05-10T07:12:38;95629.53;;;24.51
50206;BMP280;36098;48.390;10.856;2023-05-10T07:15:04;95636.78;;;24.41
50206;BMP280;36098;48.390;10.856;2023-05-10T07:17:32;95635.13;;;24.45
50206;BMP280;36098;48.390;10.856;2023-05-10T07:19:58;95639.56;;;24.49
50206;BMP280;36098;48.390;10.856;2023-05-10T07:22:23;95644.91;;;24.44
50206;BMP280;36098;48.390;10.856;2023-05-10T07:24:49;95643.13;;;24.40
50206;BMP280;36098;48.390;10.856;2023-05-10T07:27:14;95641.38;;;24.35
50206;BMP280;36098;48.390;10.856;2023-05-10T07:29:39;95644.84;;;24.49
50206;BMP280;36098;48.390;10.856;2023-05-10T07:32:05;95647.06;;;24.42
50206;BMP280;36098;48.390;10.856;2023-05-10T07:34:31;95643.13;;;24.40
50206;BMP280;36098;48.390;10.856;2023-05-10T07:36:59;95641.56;;;24.39
50206;BMP280;36098;48.390;10.856;2023-05-10T07:39:25;95646.41;;;24.50
50206;BMP280;36098;48.390;10.856;2023-05-10T07:41:51;95637.84;;;24.40
50206;BMP280;36098;48.390;10.856;2023-05-10T07:44:16;95644.28;;;24.34
50206;BMP280;36098;48.390;10.856;2023-05-10T07:46:44;95640.31;;;24.36
50206;BMP280;36098;48.390;10.856;2023-05-10T07:49:09;95642.22;;;24.12
50206;BMP280;36098;48.390;10.856;2023-05-10T07:51:37;95648.56;;;24.11
50206;BMP280;36098;48.390;10.856;2023-05-10T07:54:03;95648.94;;;24.23
50206;BMP280;36098;48.390;10.856;2023-05-10T07:56:29;95643.94;;;24.40
50206;BMP280;36098;48.390;10.856;2023-05-10T07:58:55;95656.63;;;24.38
50206;BMP280;36098;48.390;10.856;2023-05-10T08:01:24;95657.75;;;24.51
50206;BMP280;36098;48.390;10.856;2023-05-10T08:03:49;95652.19;;;24.52
50206;BMP280;36098;48.390;10.856;2023-05-10T08:06:16;95650.28;;;24.58
50206;BMP280;36098;48.390;10.856;2023-05-10T08:08:44;95660.13;;;24.34
50206;BMP280;36098;48.390;10.856;2023-05-10T08:11:16;95655.25;;;24.41
50206;BMP280;36098;48.390;10.856;2023-05-10T08:13:46;95659.53;;;24.37
50206;BMP280;36098;48.390;10.856;2023-05-10T08:16:11;95660.34;;;24.37
50206;BMP280;36098;48.390;10.856;2023-05-10T08:18:37;95657.75;;;24.32
50206;BMP280;36098;48.390;10.856;2023-05-10T08:21:02;95659.91;;;24.30
50206;BMP280;36098;48.390;10.856;2023-05-10T08:23:28;95658.03;;;24.49
50206;BMP280;36098;48.390;10.856;2023-05-10T08:25:53;95662.41;;;24.59
50206;BMP280;36098;48.390;10.856;2023-05-10T08:28:21;95656.78;;;24.47
50206;BMP280;36098;48.390;10.856;2023-05-10T08:30:47;95668.25;;;24.37
50206;BMP280;36098;48.390;10.856;2023-05-10T08:33:15;95663.53;;;24.34
50206;BMP280;36098;48.390;10.856;2023-05-10T08:35:43;95657.34;;;24.25
50206;BMP280;36098;48.390;10.856;2023-05-10T08:38:08;95655.41;;;24.31
50206;BMP280;36098;48.390;10.856;2023-05-10T08:40:36;95660.47;;;24.27
50206;BMP280;36098;48.390;10.856;2023-05-10T08:45:28;95662.41;;;23.80
50206;BMP280;36098;48.390;10.856;2023-05-10T08:48:01;95670.50;;;23.88
50206;BMP280;36098;48.390;10.856;2023-05-10T08:50:29;95668.94;;;23.87
50206;BMP280;36098;48.390;10.856;2023-05-10T08:52:55;95676.22;;;23.95
50206;BMP280;36098;48.390;10.856;2023-05-10T08:55:23;95662.84;;;24.29
50206;BMP280;36098;48.390;10.856;2023-05-10T08:57:50;95671.53;;;24.29
50206;BMP280;36098;48.390;10.856;2023-05-10T09:00:25;95668.97;;;24.06
50206;BMP280;36098;48.390;10.856;2023-05-10T09:02:56;95668.75;;;24.02
50206;BMP280;36098;48.390;10.856;2023-05-10T09:05:24;95666.91;;;23.79
50206;BMP280;36098;48.390;10.856;2023-05-10T09:07:53;95668.53;;;23.75
50206;BMP280;36098;48.390;10.856;2023-05-10T09:10:21;95674.63;;;23.94
50206;BMP280;36098;48.390;10.856;2023-05-10T09:12:53;95675.41;;;23.76
50206;BMP280;36098;48.390;10.856;2023-05-10T09:15:21;95681.41;;;23.58
50206;BMP280;36098;48.390;10.856;2023-05-10T09:17:49;95683.31;;;23.53
50206;BMP280;36098;48.390;10.856;2023-05-10T09:20:14;95676.47;;;23.52
50206;BMP280;36098;48.390;10.856;2023-05-10T09:22:42;95684.66;;;23.50
50206;BMP280;36098;48.390;10.856;2023-05-10T09:25:08;95685.72;;;23.49
50206;BMP280;36098;48.390;10.856;2023-05-10T09:27:34;95688.06;;;23.51
50206;BMP280;36098;48.390;10.856;2023-05-10T09:29:59;95686.72;;;23.53
50206;BMP280;36098;48.390;10.856;2023-05-10T09:32:37;95687.84;;;23.71
50206;BMP280;36098;48.390;10.856;2023-05-10T09:35:09;95692.41;;;23.89
50206;BMP280;36098;48.390;10.856;2023-05-10T09:37:35;95682.78;;;23.98
50206;BMP280;36098;48.390;10.856;2023-05-10T09:40:00;95690.78;;;24.11
50206;BMP280;36098;48.390;10.856;2023-05-10T09:42:25;95682.81;;;24.16
50206;BMP280;36098;48.390;10.856;2023-05-10T09:44:50;95688.06;;;23.98
50206;BMP280;36098;48.390;10.856;2023-05-10T09:47:19;95687.38;;;24.11
50206;BMP280;36098;48.390;10.856;2023-05-10T09:49:48;95663.03;;;24.32
50206;BMP280;36098;48.390;10.856;2023-05-10T09:52:14;95664.56;;;24.38
50206;BMP280;36098;48.390;10.856;2023-05-10T09:54:42;95677.16;;;24.23
50206;BMP280;36098;48.390;10.856;2023-05-10T09:57:18;95671.97;;;24.18
50206;BMP280;36098;48.390;10.856;2023-05-10T09:59:43;95670.66;;;23.97
50206;BMP280;36098;48.390;10.856;2023-05-10T10:02:08;95680.72;;;24.13
50206;BMP280;36098;48.390;10.856;2023-05-10T10:04:38;95681.88;;;24.07
50206;BMP280;36098;48.390;10.856;2023-05-10T10:07:04;95680.88;;;24.03
50206;BMP280;36098;48.390;10.856;2023-05-10T10:09:29;95685.00;;;24.09
50206;BMP280;36098;48.390;10.856;2023-05-10T10:11:55;95677.47;;;24.21
50206;BMP280;36098;48.390;10.856;2023-05-10T10:14:21;95679.28;;;24.21
50206;BMP280;36098;48.390;10.856;2023-05-10T10:16:48;95677.47;;;24.21
50206;BMP280;36098;48.390;10.856;2023-05-10T10:19:14;95673.81;;;24.36
50206;BMP280;36098;48.390;10.856;2023-05-10T10:21:39;95669.97;;;24.47
50206;BMP280;36098;48.390;10.856;2023-05-10T10:24:05;95675.72;;;24.67
50206;BMP280;36098;48.390;10.856;2023-05-10T10:26:30;95670.69;;;24.84
50206;BMP280;36098;48.390;10.856;2023-05-10T10:29:12;95675.72;;;24.67
50206;BMP280;36098;48.390;10.856;2023-05-10T10:31:45;95666.41;;;24.56
50206;BMP280;36098;48.390;10.856;2023-05-10T10:34:15;95671.53;;;24.29
50206;BMP280;36098;48.390;10.856;2023-05-10T10:36:46;95675.81;;;24.25
50206;BMP280;36098;48.390;10.856;2023-05-10T10:39:12;95664.47;;;24.43
50206;BMP280;36098;48.390;10.856;2023-05-10T10:41:39;95662.25;;;24.32
50206;BMP280;36098;48.390;10.856;2023-05-10T10:52:21;95669.16;;;24.09
50206;BMP280;36098;48.390;10.856;2023-05-10T10:54:58;95672.56;;;23.91
50206;BMP280;36098;48.390;10.856;2023-05-10T10:57:24;95669.25;;;23.81
50206;BMP280;36098;48.390;10.856;2023-05-10T10:59:51;95673.06;;;23.93
50206;BMP280;36098;48.390;10.856;2023-05-10T11:07:57;95670.66;;;23.73
50206;BMP280;36098;48.390;10.856;2023-05-10T11:10:24;95663.59;;;23.92
50206;BMP280;36098;48.390;10.856;2023-05-10T11:13:02;95663.47;;;23.79
50206;BMP280;36098;48.390;10.856;2023-05-10T11:17:58;95666.63;;;23.81
50206;BMP280;36098;48.390;10.856;2023-05-10T11:20:23;95665.63;;;23.77
50206;BMP280;36098;48.390;10.856;2023-05-10T11:22:57;95663.56;;;23.97
50206;BMP280;36098;48.390;10.856;2023-05-10T11:25:26;95665.28;;;24.07
50206;BMP280;36098;48.390;10.856;2023-05-10T11:27:52;95665.63;;;24.00
50206;BMP280;36098;48.390;10.856;2023-05-10T11:30:17;95676.28;;;23.90
50206;BMP280;36098;48.390;10.856;2023-05-10T11:32:42;95670.25;;;23.90
50206;BMP280;36098;48.390;10.856;2023-05-10T11:35:08;95659.84;;;24.54
50206;BMP280;36098;48.390;10.856;2023-05-10T11:37:34;95669.19;;;24.65
50206;BMP280;36098;48.390;10.856;2023-05-10T11:39:59;95660.75;;;24.63
50206;BMP280;36098;48.390;10.856;2023-05-10T11:42:24;95665.44;;;24.47
50206;BMP280;36098;48.390;10.856;2023-05-10T11:44:49;95670.16;;;24.50
50206;BMP280;36098;48.390;10.856;2023-05-10T11:47:15;95673.75;;;24.22
50206;BMP280;36098;48.390;10.856;2023-05-10T11:49:43;95669.97;;;24.28
50206;BMP280;36098;48.390;10.856;2023-05-10T11:52:08;95667.59;;;24.64
50206;BMP280;36098;48.390;10.856;2023-05-10T11:54:33;95674.59;;;24.36
50206;BMP280;36098;48.390;10.856;2023-05-10T11:57:02;95671.53;;;24.66
50206;BMP280;36098;48.390;10.856;2023-05-10T11:59:27;95667.16;;;24.75
50206;BMP280;36098;48.390;10.856;2023-05-10T12:01:52;95672.84;;;24.82
50206;BMP280;36098;48.390;10.856;2023-05-10T12:04:18;95674.44;;;24.46
50206;BMP280;36098;48.390;10.856;2023-05-10T12:06:43;95677.03;;;24.51
50206;BMP280;36098;48.390;10.856;2023-05-10T12:09:09;95674.53;;;24.60
50206;BMP280;36098;48.390;10.856;2023-05-10T12:11:38;95678.66;;;24.66
50206;BMP280;36098;48.390;10.856;2023-05-10T12:14:05;95681.19;;;24.57
50206;BMP280;36098;48.390;10.856;2023-05-10T12:16:30;95677.56;;;24.48
50206;BMP280;36098;48.390;10.856;2023-05-10T12:18:57;95672.19;;;24.58
50206;BMP280;36098;48.390;10.856;2023-05-10T12:21:22;95672.78;;;24.55
50206;BMP280;36098;48.390;10.856;2023-05-10T12:23:51;95668.63;;;24.81
50206;BMP280;36098;48.390;10.856;2023-05-10T12:26:16;95668.31;;;24.69
50206;BMP280;36098;48.390;10.856;2023-05-10T12:28:42;95674.31;;;24.88
50206;BMP280;36098;48.390;10.856;2023-05-10T12:31:07;95669.22;;;24.78
50206;BMP280;36098;48.390;10.856;2023-05-10T12:33:40;95676.22;;;24.51
50206;BMP280;36098;48.390;10.856;2023-05-10T12:36:09;95691.84;;;24.10
50206;BMP280;36098;48.390;10.856;2023-05-10T12:38:35;95685.06;;;24.04
50206;BMP280;36098;48.390;10.856;2023-05-10T12:41:03;95683.56;;;23.98
50206;BMP280;36098;48.390;10.856;2023-05-10T12:46:31;95682.09;;;24.66
50206;BMP280;36098;48.390;10.856;2023-05-10T12:48:57;95680.28;;;24.80
50206;BMP280;36098;48.390;10.856;2023-05-10T12:51:22;95688.88;;;24.54
50206;BMP280;36098;48.390;10.856;2023-05-10T12:53:48;95693.13;;;24.68
50206;BMP280;36098;48.390;10.856;2023-05-10T12:56:13;95702.97;;;24.44
50206;BMP280;36098;48.390;10.856;2023-05-10T12:58:38;95706.06;;;24.51
50206;BMP280;36098;48.390;10.856;2023-05-10T13:01:04;95713.63;;;24.39
50206;BMP280;36098;48.390;10.856;2023-05-10T13:03:30;95715.16;;;24.22
50206;BMP280;36098;48.390;10.856;2023-05-10T13:05:55;95728.94;;;24.37
50206;BMP280;36098;48.390;10.856;2023-05-10T13:08:20;95717.38;;;24.70
50206;BMP280;36098;48.390;10.856;2023-05-10T13:10:46;95720.16;;;24.79
50206;BMP280;36098;48.390;10.856;2023-05-10T13:13:11;95723.34;;;24.62
50206;BMP280;36098;48.390;10.856;2023-05-10T13:15:36;95720.84;;;24.71
50206;BMP280;36098;48.390;10.856;2023-05-10T13:18:02;95729.63;;;24.43
50206;BMP280;36098;48.390;10.856;2023-05-10T13:20:27;95729.59;;;24.48
50206;BMP280;36098;48.390;10.856;2023-05-10T13:22:52;95726.84;;;24.34
50206;BMP280;36098;48.390;10.856;2023-05-10T13:25:18;95733.31;;;24.47
50206;BMP280;36098;48.390;10.856;2023-05-10T13:27:43;95727.91;;;24.57
50206;BMP280;36098;48.390;10.856;2023-05-10T13:30:09;95729.50;;;24.34
50206;BMP280;36098;48.390;10.856;2023-05-10T13:35:37;95730.44;;;24.62
50206;BMP280;36098;48.390;10.856;2023-05-10T13:53:17;95736.25;;;24.03
50206;BMP280;36098;48.390;10.856;2023-05-10T13:55:42;95748.31;;;24.09
50206;BMP280;36098;48.390;10.856;2023-05-10T13:58:07;95748.97;;;24.20
50206;BMP280;36098;48.390;10.856;2023-05-10T14:00:32;95752.63;;;24.42
50206;BMP280;36098;48.390;10.856;2023-05-10T14:02:58;95746.53;;;24.42
50206;BMP280;36098;48.390;10.856;2023-05-10T14:05:23;95755.97;;;24.29
50206;BMP280;36098;48.390;10.856;2023-05-10T14:07:48;95752.19;;;24.35
50206;BMP280;36098;48.390;10.856;2023-05-10T14:10:13;95753.41;;;24.43
50206;BMP280;36098;48.390;10.856;2023-05-10T14:12:39;95755.41;;;24.51
50206;BMP280;36098;48.390;10.856;2023-05-10T14:15:04;95753.34;;;24.66
50206;BMP280;36098;48.390;10.856;2023-05-10T14:17:31;95746.09;;;25.09
50206;BMP280;36098;48.390;10.856;2023-05-10T14:19:56;95742.50;;;24.86
50206;BMP280;36098;48.390;10.856;2023-05-10T14:22:22;95751.78;;;24.47
50206;BMP280;36098;48.390;10.856;2023-05-10T14:24:47;95751.56;;;25.12
50206;BMP280;36098;48.390;10.856;2023-05-10T14:27:12;95743.16;;;25.10
50206;BMP280;36098;48.390;10.856;2023-05-10T14:29:37;95750.22;;;25.14
50206;BMP280;36098;48.390;10.856;2023-05-10T14:32:03;95759.75;;;24.42
50206;BMP280;36098;48.390;10.856;2023-05-10T14:34:28;95769.63;;;24.73
50206;BMP280;36098;48.390;10.856;2023-05-10T14:36:53;95770.38;;;24.37
50206;BMP280;36098;48.390;10.856;2023-05-10T14:39:18;95778.69;;;24.67
50206;BMP280;36098;48.390;10.856;2023-05-10T14:41:43;95775.63;;;24.60
50206;BMP280;36098;48.390;10.856;2023-05-10T14:44:10;95780.25;;;24.68
50206;BMP280;36098;48.390;10.856;2023-05-10T14:46:35;95783.44;;;24.84
50206;BMP280;36098;48.390;10.856;2023-05-10T14:49:00;95783.59;;;24.92
50206;BMP280;36098;48.390;10.856;2023-05-10T14:51:26;95785.69;;;24.95
50206;BMP280;36098;48.390;10.856;2023-05-10T14:53:51;95796.31;;;24.72